sensor_id;sensor_type;location;lat;lon;timestamp;P1;durP1;ratioP1;P2;durP2;ratioP2
1601;SDS011;794;48.592;9.634;2023-08-30T00:00:58;9.93;;;8.03;;
1601;SDS011;794;48.592;9.634;2023-08-30T00:03:25;9.97;;;9.17;;
1601;SDS011;794;48.592;9.634;2023-08-30T00:05:52;10.17;;;9.27;;
1601;SDS011;794;48.592;9.634;2023-08-30T00:08:22;10.00;;;9.23;;
1601;SDS011;794;48.592;9.634;2023-08-30T00:10:51;9.80;;;9.00;;
1601;SDS011;794;48.592;9.634;2023-08-30T00:13:20;10.57;;;9.67;;
1601;SDS011;794;48.592;9.634;2023-08-30T00:15:47;10.83;;;9.87;;
1601;SDS011;794;48.592;9.634;2023-08-30T00:18:15;10.30;;;9.40;;
1601;SDS011;794;48.592;9.634;2023-08-30T00:20:44;10.77;;;9.87;;
1601;SDS011;794;48.592;9.634;2023-08-30T00:23:18;10.87;;;10.00;;
1601;SDS011;794;48.592;9.634;2023-08-30T00:25:46;10.47;;;9.47;;
1601;SDS011;794;48.592;9.634;2023-08-30T00:28:13;10.90;;;9.83;;
1601;SDS011;794;48.592;9.634;2023-08-30T00:30:45;10.00;;;9.00;;
1601;SDS011;794;48.592;9.634;2023-08-30T00:33:12;8.40;;;7.70;;
1601;SDS011;794;48.592;9.634;2023-08-30T00:35:42;9.97;;;9.13;;
1601;SDS011;794;48.592;9.634;2023-08-30T00:38:12;8.53;;;7.73;;
1601;SDS011;794;48.592;9.634;2023-08-30T00:40:39;9.33;;;8.63;;
1601;SDS011;794;48.592;9.634;2023-08-30T00:43:12;9.13;;;8.43;;
1601;SDS011;794;48.592;9.634;2023-08-30T00:45:39;10.97;;;9.97;;
1601;SDS011;794;48.592;9.634;2023-08-30T00:48:08;8.90;;;8.20;;
1601;SDS011;794;48.592;9.634;2023-08-30T00:50:35;10.33;;;9.47;;
1601;SDS011;794;48.592;9.634;2023-08-30T00:53:04;11.00;;;10.00;;
1601;SDS011;794;48.592;9.634;2023-08-30T00:55:32;10.13;;;9.13;;
1601;SDS011;794;48.592;9.634;2023-08-30T00:58:03;9.90;;;9.10;;
1601;SDS011;794;48.592;9.634;2023-08-30T01:00:32;10.50;;;9.50;;
1601;SDS011;794;48.592;9.634;2023-08-30T01:03:09;9.90;;;9.00;;
1601;SDS011;794;48.592;9.634;2023-08-30T01:05:36;8.87;;;8.17;;
1601;SDS011;794;48.592;9.634;2023-08-30T01:08:06;10.17;;;9.37;;
1601;SDS011;794;48.592;9.634;2023-08-30T01:10:37;10.00;;;9.20;;
1601;SDS011;794;48.592;9.634;2023-08-30T01:13:12;9.27;;;8.47;;
1601;SDS011;794;48.592;9.634;2023-08-30T01:15:48;11.70;;;8.70;;
1601;SDS011;794;48.592;9.634;2023-08-30T01:18:27;10.30;;;9.30;;
1601;SDS011;794;48.592;9.634;2023-08-30T01:21:02;10.40;;;9.50;;
1601;SDS011;794;48.592;9.634;2023-08-30T01:23:42;9.97;;;9.00;;
1601;SDS011;794;48.592;9.634;2023-08-30T01:26:20;8.47;;;7.77;;
1601;SDS011;794;48.592;9.634;2023-08-30T01:28:57;9.60;;;8.80;;
1601;SDS011;794;48.592;9.634;2023-08-30T01:31:32;9.40;;;8.53;;
1601;SDS011;794;48.592;9.634;2023-08-30T01:34:03;13.33;;;9.43;;
1601;SDS011;794;48.592;9.634;2023-08-30T01:36:33;9.97;;;9.17;;
1601;SDS011;794;48.592;9.634;2023-08-30T01:39:00;10.57;;;9.70;;
1601;SDS011;794;48.592;9.634;2023-08-30T01:41:29;9.97;;;9.07;;
1601;SDS011;794;48.592;9.634;2023-08-30T01:43:58;11.53;;;10.53;;
1601;SDS011;794;48.592;9.634;2023-08-30T01:46:29;11.20;;;10.40;;
1601;SDS011;794;48.592;9.634;2023-08-30T01:48:58;11.90;;;9.60;;
1601;SDS011;794;48.592;9.634;2023-08-30T01:51:32;10.13;;;9.23;;
1601;SDS011;794;48.592;9.634;2023-08-30T01:54:02;10.60;;;9.70;;
1601;SDS011;794;48.592;9.634;2023-08-30T01:56:33;9.40;;;8.50;;
1601;SDS011;794;48.592;9.634;2023-08-30T01:59:06;9.37;;;8.53;;
1601;SDS011;794;48.592;9.634;2023-08-30T02:01:33;10.33;;;9.43;;
1601;SDS011;794;48.592;9.634;2023-08-30T02:04:06;10.80;;;9.80;;
1601;SDS011;794;48.592;9.634;2023-08-30T02:06:34;9.80;;;9.00;;
1601;SDS011;794;48.592;9.634;2023-08-30T02:09:09;10.00;;;9.20;;
1601;SDS011;794;48.592;9.634;2023-08-30T02:11:44;11.00;;;10.00;;
1601;SDS011;794;48.592;9.634;2023-08-30T02:14:16;11.00;;;9.73;;
1601;SDS011;794;48.592;9.634;2023-08-30T02:16:46;10.77;;;9.87;;
1601;SDS011;794;48.592;9.634;2023-08-30T02:19:17;9.93;;;8.73;;
1601;SDS011;794;48.592;9.634;2023-08-30T02:21:46;9.23;;;8.30;;
1601;SDS011;794;48.592;9.634;2023-08-30T02:24:13;9.33;;;8.53;;
1601;SDS011;794;48.592;9.634;2023-08-30T02:26:42;9.83;;;8.80;;
1601;SDS011;794;48.592;9.634;2023-08-30T02:29:13;10.50;;;9.60;;
1601;SDS011;794;48.592;9.634;2023-08-30T02:31:41;10.70;;;9.70;;
1601;SDS011;794;48.592;9.634;2023-08-30T02:34:08;9.93;;;8.90;;
1601;SDS011;794;48.592;9.634;2023-08-30T02:36:41;9.70;;;8.80;;
1601;SDS011;794;48.592;9.634;2023-08-30T02:39:08;10.10;;;9.20;;
1601;SDS011;794;48.592;9.634;2023-08-30T02:41:35;13.80;;;9.43;;
1601;SDS011;794;48.592;9.634;2023-08-30T02:44:02;10.77;;;9.87;;
1601;SDS011;794;48.592;9.634;2023-08-30T02:46:34;10.10;;;9.20;;
1601;SDS011;794;48.592;9.634;2023-08-30T02:49:04;10.40;;;9.40;;
1601;SDS011;794;48.592;9.634;2023-08-30T02:51:37;9.20;;;8.33;;
1601;SDS011;794;48.592;9.634;2023-08-30T02:54:07;10.03;;;9.13;;
1601;SDS011;794;48.592;9.634;2023-08-30T02:56:36;9.70;;;8.80;;
1601;SDS011;794;48.592;9.634;2023-08-30T02:59:02;9.23;;;8.53;;
1601;SDS011;794;48.592;9.634;2023-08-30T03:01:33;9.53;;;8.73;;
1601;SDS011;794;48.592;9.634;2023-08-30T03:04:04;9.53;;;8.63;;
1601;SDS011;794;48.592;9.634;2023-08-30T03:06:32;9.70;;;8.90;;
1601;SDS011;794;48.592;9.634;2023-08-30T03:09:07;11.00;;;9.87;;
1601;SDS011;794;48.592;9.634;2023-08-30T03:11:34;9.67;;;8.77;;
1601;SDS011;794;48.592;9.634;2023-08-30T03:14:01;10.97;;;9.87;;
1601;SDS011;794;48.592;9.634;2023-08-30T03:16:35;14.03;;;9.20;;
1601;SDS011;794;48.592;9.634;2023-08-30T03:19:02;8.43;;;7.73;;
1601;SDS011;794;48.592;9.634;2023-08-30T03:21:32;10.33;;;9.43;;
1601;SDS011;794;48.592;9.634;2023-08-30T03:24:01;10.07;;;9.07;;
1601;SDS011;794;48.592;9.634;2023-08-30T03:26:28;11.30;;;10.20;;
1601;SDS011;794;48.592;9.634;2023-08-30T03:28:55;11.40;;;9.87;;
1601;SDS011;794;48.592;9.634;2023-08-30T03:31:22;24.33;;;11.90;;
1601;SDS011;794;48.592;9.634;2023-08-30T03:33:53;16.60;;;10.30;;
1601;SDS011;794;48.592;9.634;2023-08-30T03:36:23;19.70;;;11.57;;
1601;SDS011;794;48.592;9.634;2023-08-30T03:38:54;13.43;;;11.47;;
1601;SDS011;794;48.592;9.634;2023-08-30T03:41:24;13.07;;;11.80;;
1601;SDS011;794;48.592;9.634;2023-08-30T03:43:54;15.97;;;11.60;;
1601;SDS011;794;48.592;9.634;2023-08-30T03:46:24;15.40;;;11.57;;
1601;SDS011;794;48.592;9.634;2023-08-30T03:48:55;18.80;;;12.50;;
1601;SDS011;794;48.592;9.634;2023-08-30T03:51:22;14.73;;;10.90;;
1601;SDS011;794;48.592;9.634;2023-08-30T03:53:49;10.67;;;9.57;;
1601;SDS011;794;48.592;9.634;2023-08-30T03:56:16;12.93;;;10.73;;
1601;SDS011;794;48.592;9.634;2023-08-30T03:58:46;11.60;;;9.60;;
1601;SDS011;794;48.592;9.634;2023-08-30T04:01:13;14.40;;;11.50;;
1601;SDS011;794;48.592;9.634;2023-08-30T04:03:40;11.33;;;9.80;;
1601;SDS011;794;48.592;9.634;2023-08-30T04:06:12;11.67;;;10.50;;
1601;SDS011;794;48.592;9.634;2023-08-30T04:08:39;12.30;;;9.83;;
1601;SDS011;794;48.592;9.634;2023-08-30T04:11:08;11.50;;;10.30;;
1601;SDS011;794;48.592;9.634;2023-08-30T04:13:37;13.10;;;10.33;;
1601;SDS011;794;48.592;9.634;2023-08-30T04:16:06;11.67;;;10.40;;
1601;SDS011;794;48.592;9.634;2023-08-30T04:18:32;10.60;;;9.60;;
1601;SDS011;794;48.592;9.634;2023-08-30T04:21:03;11.50;;;10.30;;
1601;SDS011;794;48.592;9.634;2023-08-30T04:23:37;10.10;;;9.10;;
1601;SDS011;794;48.592;9.634;2023-08-30T04:26:04;11.33;;;10.23;;
1601;SDS011;794;48.592;9.634;2023-08-30T04:28:33;12.47;;;11.27;;
1601;SDS011;794;48.592;9.634;2023-08-30T04:31:03;12.00;;;10.90;;
1601;SDS011;794;48.592;9.634;2023-08-30T04:33:33;11.17;;;10.07;;
1601;SDS011;794;48.592;9.634;2023-08-30T04:36:03;9.93;;;8.93;;
1601;SDS011;794;48.592;9.634;2023-08-30T04:38:35;12.03;;;10.90;;
1601;SDS011;794;48.592;9.634;2023-08-30T04:41:01;12.50;;;11.30;;
1601;SDS011;794;48.592;9.634;2023-08-30T04:43:28;11.90;;;10.70;;
1601;SDS011;794;48.592;9.634;2023-08-30T04:48:36;10.60;;;9.60;;
1601;SDS011;794;48.592;9.634;2023-08-30T04:51:03;12.07;;;10.87;;
1601;SDS011;794;48.592;9.634;2023-08-30T04:53:35;12.07;;;9.90;;
1601;SDS011;794;48.592;9.634;2023-08-30T04:56:17;9.80;;;8.80;;
1601;SDS011;794;48.592;9.634;2023-08-30T04:58:47;11.97;;;10.87;;
1601;SDS011;794;48.592;9.634;2023-08-30T05:01:15;10.33;;;9.43;;
1601;SDS011;794;48.592;9.634;2023-08-30T05:06:54;11.00;;;9.90;;
1601;SDS011;794;48.592;9.634;2023-08-30T05:09:25;11.03;;;10.03;;
1601;SDS011;794;48.592;9.634;2023-08-30T05:11:54;10.10;;;9.00;;
1601;SDS011;794;48.592;9.634;2023-08-30T05:14:24;10.77;;;9.63;;
1601;SDS011;794;48.592;9.634;2023-08-30T05:17:00;11.60;;;9.43;;
1601;SDS011;794;48.592;9.634;2023-08-30T05:19:27;9.73;;;8.77;;
1601;SDS011;794;48.592;9.634;2023-08-30T05:21:57;11.77;;;10.73;;
1601;SDS011;794;48.592;9.634;2023-08-30T05:24:25;11.47;;;10.30;;
1601;SDS011;794;48.592;9.634;2023-08-30T05:26:53;10.63;;;9.40;;
1601;SDS011;794;48.592;9.634;2023-08-30T05:29:20;11.10;;;10.10;;
1601;SDS011;794;48.592;9.634;2023-08-30T05:31:47;9.27;;;8.47;;
1601;SDS011;794;48.592;9.634;2023-08-30T05:34:17;10.67;;;9.80;;
1601;SDS011;794;48.592;9.634;2023-08-30T05:36:44;12.27;;;11.07;;
1601;SDS011;794;48.592;9.634;2023-08-30T05:39:14;11.43;;;10.40;;
1601;SDS011;794;48.592;9.634;2023-08-30T05:41:45;13.50;;;12.23;;
1601;SDS011;794;48.592;9.634;2023-08-30T05:44:12;13.70;;;12.33;;
1601;SDS011;794;48.592;9.634;2023-08-30T05:46:42;12.57;;;11.47;;
1601;SDS011;794;48.592;9.634;2023-08-30T05:49:11;12.73;;;11.63;;
1601;SDS011;794;48.592;9.634;2023-08-30T05:51:38;12.90;;;11.70;;
1601;SDS011;794;48.592;9.634;2023-08-30T05:54:05;12.57;;;11.37;;
1601;SDS011;794;48.592;9.634;2023-08-30T05:56:35;13.47;;;12.10;;
1601;SDS011;794;48.592;9.634;2023-08-30T05:59:06;13.93;;;12.57;;
1601;SDS011;794;48.592;9.634;2023-08-30T06:01:33;12.00;;;10.93;;
1601;SDS011;794;48.592;9.634;2023-08-30T06:04:04;12.17;;;10.97;;
1601;SDS011;794;48.592;9.634;2023-08-30T06:06:34;10.80;;;9.90;;
1601;SDS011;794;48.592;9.634;2023-08-30T06:09:04;9.80;;;9.00;;
1601;SDS011;794;48.592;9.634;2023-08-30T06:11:34;10.13;;;9.13;;
1601;SDS011;794;48.592;9.634;2023-08-30T06:14:01;9.20;;;8.40;;
1601;SDS011;794;48.592;9.634;2023-08-30T06:16:32;8.90;;;8.20;;
1601;SDS011;794;48.592;9.634;2023-08-30T06:19:06;8.67;;;7.87;;
1601;SDS011;794;48.592;9.634;2023-08-30T06:21:33;7.20;;;6.60;;
1601;SDS011;794;48.592;9.634;2023-08-30T06:24:02;6.00;;;5.60;;
1601;SDS011;794;48.592;9.634;2023-08-30T06:26:32;6.20;;;5.80;;
1601;SDS011;794;48.592;9.634;2023-08-30T06:29:00;9.30;;;6.40;;
1601;SDS011;794;48.592;9.634;2023-08-30T06:31:30;10.03;;;9.00;;
1601;SDS011;794;48.592;9.634;2023-08-30T06:33:58;6.53;;;5.93;;
1601;SDS011;794;48.592;9.634;2023-08-30T06:36:28;6.57;;;6.07;;
1601;SDS011;794;48.592;9.634;2023-08-30T06:38:57;7.10;;;6.60;;
1601;SDS011;794;48.592;9.634;2023-08-30T06:41:27;7.93;;;7.23;;
1601;SDS011;794;48.592;9.634;2023-08-30T06:43:54;7.00;;;6.30;;
1601;SDS011;794;48.592;9.634;2023-08-30T06:46:24;6.93;;;6.33;;
1601;SDS011;794;48.592;9.634;2023-08-30T06:48:55;7.13;;;6.60;;
1601;SDS011;794;48.592;9.634;2023-08-30T06:51:22;7.53;;;6.87;;
1601;SDS011;794;48.592;9.634;2023-08-30T06:53:50;7.60;;;6.90;;
1601;SDS011;794;48.592;9.634;2023-08-30T06:56:17;7.10;;;6.60;;
1601;SDS011;794;48.592;9.634;2023-08-30T06:58:44;6.83;;;6.23;;
1601;SDS011;794;48.592;9.634;2023-08-30T07:01:13;7.30;;;6.67;;
1601;SDS011;794;48.592;9.634;2023-08-30T07:03:45;7.20;;;6.50;;
1601;SDS011;794;48.592;9.634;2023-08-30T07:06:12;7.40;;;6.80;;
1601;SDS011;794;48.592;9.634;2023-08-30T07:08:41;7.03;;;6.40;;
1601;SDS011;794;48.592;9.634;2023-08-30T07:11:12;7.00;;;6.40;;
1601;SDS011;794;48.592;9.634;2023-08-30T07:13:39;7.77;;;7.07;;
1601;SDS011;794;48.592;9.634;2023-08-30T07:16:09;7.47;;;6.83;;
1601;SDS011;794;48.592;9.634;2023-08-30T07:18:38;7.83;;;7.13;;
1601;SDS011;794;48.592;9.634;2023-08-30T07:21:07;5.93;;;5.47;;
1601;SDS011;794;48.592;9.634;2023-08-30T07:23:34;5.97;;;5.53;;
1601;SDS011;794;48.592;9.634;2023-08-30T07:26:04;5.60;;;5.20;;
1601;SDS011;794;48.592;9.634;2023-08-30T07:28:36;5.77;;;5.37;;
1601;SDS011;794;48.592;9.634;2023-08-30T07:31:12;6.57;;;5.97;;
1601;SDS011;794;48.592;9.634;2023-08-30T07:33:46;6.10;;;5.50;;
1601;SDS011;794;48.592;9.634;2023-08-30T07:36:15;5.83;;;5.40;;
1601;SDS011;794;48.592;9.634;2023-08-30T07:38:42;6.30;;;5.70;;
1601;SDS011;794;48.592;9.634;2023-08-30T07:41:12;6.97;;;6.37;;
1601;SDS011;794;48.592;9.634;2023-08-30T07:43:52;7.40;;;6.40;;
1601;SDS011;794;48.592;9.634;2023-08-30T07:46:27;7.27;;;5.73;;
1601;SDS011;794;48.592;9.634;2023-08-30T07:48:57;7.87;;;6.00;;
1601;SDS011;794;48.592;9.634;2023-08-30T07:51:28;6.43;;;5.93;;
1601;SDS011;794;48.592;9.634;2023-08-30T07:54:18;6.30;;;5.80;;
1601;SDS011;794;48.592;9.634;2023-08-30T07:57:28;5.27;;;4.77;;
1601;SDS011;794;48.592;9.634;2023-08-30T08:00:01;5.10;;;4.60;;
1601;SDS011;794;48.592;9.634;2023-08-30T08:02:33;5.40;;;4.90;;
1601;SDS011;794;48.592;9.634;2023-08-30T08:05:03;4.13;;;3.83;;
1601;SDS011;794;48.592;9.634;2023-08-30T08:07:39;4.70;;;4.23;;
1601;SDS011;794;48.592;9.634;2023-08-30T08:10:12;5.73;;;5.27;;
1601;SDS011;794;48.592;9.634;2023-08-30T08:12:42;4.80;;;4.40;;
1601;SDS011;794;48.592;9.634;2023-08-30T08:15:12;5.90;;;5.30;;
1601;SDS011;794;48.592;9.634;2023-08-30T08:17:41;6.47;;;5.97;;
1601;SDS011;794;48.592;9.634;2023-08-30T08:20:08;6.00;;;5.40;;
1601;SDS011;794;48.592;9.634;2023-08-30T08:22:40;6.50;;;6.00;;
1601;SDS011;794;48.592;9.634;2023-08-30T08:25:07;4.97;;;4.57;;
1601;SDS011;794;48.592;9.634;2023-08-30T08:27:35;4.70;;;4.30;;
1601;SDS011;794;48.592;9.634;2023-08-30T08:30:03;5.47;;;4.97;;
1601;SDS011;794;48.592;9.634;2023-08-30T08:32:30;5.17;;;4.73;;
1601;SDS011;794;48.592;9.634;2023-08-30T08:34:58;6.10;;;3.50;;
1601;SDS011;794;48.592;9.634;2023-08-30T08:37:25;3.27;;;3.07;;
1601;SDS011;794;48.592;9.634;2023-08-30T08:39:54;3.27;;;2.97;;
1601;SDS011;794;48.592;9.634;2023-08-30T08:42:24;3.47;;;3.27;;
1601;SDS011;794;48.592;9.634;2023-08-30T08:44:54;3.07;;;2.80;;
1601;SDS011;794;48.592;9.634;2023-08-30T08:47:25;3.10;;;2.90;;
1601;SDS011;794;48.592;9.634;2023-08-30T08:49:53;3.00;;;2.67;;
1601;SDS011;794;48.592;9.634;2023-08-30T08:52:23;2.87;;;2.67;;
1601;SDS011;794;48.592;9.634;2023-08-30T08:54:57;2.83;;;2.63;;
1601;SDS011;794;48.592;9.634;2023-08-30T08:57:26;3.03;;;2.70;;
1601;SDS011;794;48.592;9.634;2023-08-30T08:59:57;3.13;;;2.80;;
1601;SDS011;794;48.592;9.634;2023-08-30T09:02:27;3.10;;;2.83;;
1601;SDS011;794;48.592;9.634;2023-08-30T09:04:57;2.90;;;2.70;;
1601;SDS011;794;48.592;9.634;2023-08-30T09:07:25;4.10;;;2.37;;
1601;SDS011;794;48.592;9.634;2023-08-30T09:09:54;2.60;;;2.40;;
1601;SDS011;794;48.592;9.634;2023-08-30T09:12:25;2.60;;;2.40;;
1601;SDS011;794;48.592;9.634;2023-08-30T09:14:53;3.13;;;2.63;;
1601;SDS011;794;48.592;9.634;2023-08-30T09:17:20;3.20;;;2.97;;
1601;SDS011;794;48.592;9.634;2023-08-30T09:19:47;3.83;;;3.53;;
1601;SDS011;794;48.592;9.634;2023-08-30T09:22:15;2.60;;;2.33;;
1601;SDS011;794;48.592;9.634;2023-08-30T09:24:42;2.70;;;2.50;;
1601;SDS011;794;48.592;9.634;2023-08-30T09:27:11;2.87;;;2.67;;
1601;SDS011;794;48.592;9.634;2023-08-30T09:29:38;3.33;;;2.33;;
1601;SDS011;794;48.592;9.634;2023-08-30T09:32:12;2.40;;;1.90;;
1601;SDS011;794;48.592;9.634;2023-08-30T09:34:52;2.10;;;2.00;;
1601;SDS011;794;48.592;9.634;2023-08-30T09:37:21;2.17;;;1.97;;
1601;SDS011;794;48.592;9.634;2023-08-30T09:39:51;2.20;;;1.67;;
1601;SDS011;794;48.592;9.634;2023-08-30T09:42:20;3.10;;;2.70;;
1601;SDS011;794;48.592;9.634;2023-08-30T09:44:48;1.73;;;1.63;;
1601;SDS011;794;48.592;9.634;2023-08-30T09:47:18;2.50;;;2.00;;
1601;SDS011;794;48.592;9.634;2023-08-30T09:49:58;2.23;;;2.03;;
1601;SDS011;794;48.592;9.634;2023-08-30T09:52:35;2.00;;;1.90;;
1601;SDS011;794;48.592;9.634;2023-08-30T09:55:05;3.03;;;1.70;;
1601;SDS011;794;48.592;9.634;2023-08-30T09:57:54;1.80;;;1.70;;
1601;SDS011;794;48.592;9.634;2023-08-30T10:00:29;3.00;;;2.10;;
1601;SDS011;794;48.592;9.634;2023-08-30T10:03:05;2.57;;;2.20;;
1601;SDS011;794;48.592;9.634;2023-08-30T10:05:38;2.40;;;2.20;;
1601;SDS011;794;48.592;9.634;2023-08-30T10:08:17;2.47;;;2.27;;
1601;SDS011;794;48.592;9.634;2023-08-30T10:11:17;2.07;;;1.70;;
1601;SDS011;794;48.592;9.634;2023-08-30T10:13:52;2.20;;;2.00;;
1601;SDS011;794;48.592;9.634;2023-08-30T10:16:44;2.40;;;2.20;;
1601;SDS011;794;48.592;9.634;2023-08-30T10:27:33;2.07;;;1.93;;
1601;SDS011;794;48.592;9.634;2023-08-30T10:37:09;1.70;;;1.60;;
1601;SDS011;794;48.592;9.634;2023-08-30T10:39:58;1.90;;;1.80;;
1601;SDS011;794;48.592;9.634;2023-08-30T10:42:58;2.60;;;1.50;;
1601;SDS011;794;48.592;9.634;2023-08-30T10:45:28;1.80;;;1.70;;
1601;SDS011;794;48.592;9.634;2023-08-30T10:47:58;1.47;;;1.37;;
1601;SDS011;794;48.592;9.634;2023-08-30T10:50:33;1.67;;;1.57;;
1601;SDS011;794;48.592;9.634;2023-08-30T10:53:03;1.80;;;1.70;;
1601;SDS011;794;48.592;9.634;2023-08-30T10:55:41;2.47;;;1.90;;
1601;SDS011;794;48.592;9.634;2023-08-30T10:58:28;1.40;;;1.30;;
1601;SDS011;794;48.592;9.634;2023-08-30T11:01:05;1.90;;;1.80;;
1601;SDS011;794;48.592;9.634;2023-08-30T11:03:38;1.33;;;1.23;;
1601;SDS011;794;48.592;9.634;2023-08-30T11:06:07;2.03;;;1.37;;
1601;SDS011;794;48.592;9.634;2023-08-30T11:08:34;1.73;;;1.53;;
1601;SDS011;794;48.592;9.634;2023-08-30T11:13:36;1.47;;;1.30;;
1601;SDS011;794;48.592;9.634;2023-08-30T11:16:03;1.67;;;1.57;;
1601;SDS011;794;48.592;9.634;2023-08-30T11:18:36;1.67;;;1.50;;
1601;SDS011;794;48.592;9.634;2023-08-30T11:21:06;2.97;;;1.40;;
1601;SDS011;794;48.592;9.634;2023-08-30T11:23:38;1.90;;;1.40;;
1601;SDS011;794;48.592;9.634;2023-08-30T11:26:06;1.50;;;1.40;;
1601;SDS011;794;48.592;9.634;2023-08-30T11:28:38;2.70;;;1.30;;
1601;SDS011;794;48.592;9.634;2023-08-30T11:31:17;3.83;;;1.50;;
1601;SDS011;794;48.592;9.634;2023-08-30T11:33:51;1.70;;;1.60;;
1601;SDS011;794;48.592;9.634;2023-08-30T11:36:22;3.63;;;1.63;;
1601;SDS011;794;48.592;9.634;2023-08-30T11:38:52;2.17;;;1.73;;
1601;SDS011;794;48.592;9.634;2023-08-30T11:41:22;1.97;;;1.60;;
1601;SDS011;794;48.592;9.634;2023-08-30T11:43:53;2.10;;;1.90;;
1601;SDS011;794;48.592;9.634;2023-08-30T11:46:28;2.67;;;2.13;;
1601;SDS011;794;48.592;9.634;2023-08-30T11:48:57;1.90;;;1.67;;
1601;SDS011;794;48.592;9.634;2023-08-30T11:51:27;2.30;;;2.10;;
1601;SDS011;794;48.592;9.634;2023-08-30T11:53:58;2.13;;;1.97;;
1601;SDS011;794;48.592;9.634;2023-08-30T11:56:28;1.90;;;1.80;;
1601;SDS011;794;48.592;9.634;2023-08-30T11:58:58;1.90;;;1.80;;
1601;SDS011;794;48.592;9.634;2023-08-30T12:01:27;2.63;;;1.90;;
1601;SDS011;794;48.592;9.634;2023-08-30T12:03:55;2.70;;;1.80;;
1601;SDS011;794;48.592;9.634;2023-08-30T12:06:23;5.53;;;2.67;;
1601;SDS011;794;48.592;9.634;2023-08-30T12:08:58;1.83;;;1.73;;
1601;SDS011;794;48.592;9.634;2023-08-30T12:11:26;2.13;;;2.03;;
1601;SDS011;794;48.592;9.634;2023-08-30T12:14:01;2.30;;;1.63;;
1601;SDS011;794;48.592;9.634;2023-08-30T12:16:28;2.60;;;2.07;;
1601;SDS011;794;48.592;9.634;2023-08-30T12:19:06;2.10;;;1.90;;
1601;SDS011;794;48.592;9.634;2023-08-30T12:21:41;2.07;;;1.87;;
1601;SDS011;794;48.592;9.634;2023-08-30T12:24:12;1.90;;;1.77;;
1601;SDS011;794;48.592;9.634;2023-08-30T12:26:42;2.87;;;2.33;;
1601;SDS011;794;48.592;9.634;2023-08-30T12:29:12;2.20;;;2.00;;
1601;SDS011;794;48.592;9.634;2023-08-30T12:31:42;2.37;;;2.23;;
1601;SDS011;794;48.592;9.634;2023-08-30T12:34:09;1.77;;;1.67;;
1601;SDS011;794;48.592;9.634;2023-08-30T12:36:39;2.27;;;2.17;;
1601;SDS011;794;48.592;9.634;2023-08-30T12:39:10;2.00;;;1.90;;
1601;SDS011;794;48.592;9.634;2023-08-30T12:41:38;3.00;;;1.70;;
1601;SDS011;794;48.592;9.634;2023-08-30T12:44:49;1.53;;;1.43;;
1601;SDS011;794;48.592;9.634;2023-08-30T12:47:29;2.17;;;2.00;;
1601;SDS011;794;48.592;9.634;2023-08-30T12:50:24;2.60;;;2.20;;
1601;SDS011;794;48.592;9.634;2023-08-30T12:52:58;2.57;;;2.03;;
1601;SDS011;794;48.592;9.634;2023-08-30T12:58:47;2.33;;;2.13;;
1601;SDS011;794;48.592;9.634;2023-08-30T13:01:14;2.70;;;2.50;;
1601;SDS011;794;48.592;9.634;2023-08-30T13:03:49;2.93;;;2.47;;
1601;SDS011;794;48.592;9.634;2023-08-30T13:06:19;2.23;;;2.03;;
1601;SDS011;794;48.592;9.634;2023-08-30T13:08:49;2.90;;;2.70;;
1601;SDS011;794;48.592;9.634;2023-08-30T13:11:19;3.97;;;2.60;;
1601;SDS011;794;48.592;9.634;2023-08-30T13:13:52;2.40;;;2.17;;
1601;SDS011;794;48.592;9.634;2023-08-30T13:16:22;2.70;;;2.33;;
1601;SDS011;794;48.592;9.634;2023-08-30T13:18:51;2.10;;;2.00;;
1601;SDS011;794;48.592;9.634;2023-08-30T13:21:18;3.27;;;2.27;;
1601;SDS011;794;48.592;9.634;2023-08-30T13:23:45;3.57;;;1.80;;
1601;SDS011;794;48.592;9.634;2023-08-30T13:26:13;2.23;;;2.10;;
1601;SDS011;794;48.592;9.634;2023-08-30T13:28:40;3.80;;;2.20;;
1601;SDS011;794;48.592;9.634;2023-08-30T13:31:09;2.07;;;1.97;;
1601;SDS011;794;48.592;9.634;2023-08-30T13:33:39;2.07;;;1.97;;
1601;SDS011;794;48.592;9.634;2023-08-30T13:36:06;3.17;;;2.87;;
1601;SDS011;794;48.592;9.634;2023-08-30T13:38:33;3.03;;;2.07;;
1601;SDS011;794;48.592;9.634;2023-08-30T13:41:00;2.10;;;2.00;;
1601;SDS011;794;48.592;9.634;2023-08-30T13:43:29;2.30;;;2.20;;
1601;SDS011;794;48.592;9.634;2023-08-30T13:45:58;2.50;;;2.30;;
1601;SDS011;794;48.592;9.634;2023-08-30T13:48:31;2.43;;;2.27;;
1601;SDS011;794;48.592;9.634;2023-08-30T13:50:58;4.87;;;2.33;;
1601;SDS011;794;48.592;9.634;2023-08-30T13:53:27;2.57;;;2.37;;
1601;SDS011;794;48.592;9.634;2023-08-30T13:55:54;2.50;;;2.30;;
1601;SDS011;794;48.592;9.634;2023-08-30T13:58:24;3.90;;;2.70;;
1601;SDS011;794;48.592;9.634;2023-08-30T14:00:56;2.07;;;1.97;;
1601;SDS011;794;48.592;9.634;2023-08-30T14:03:23;3.60;;;2.73;;
1601;SDS011;794;48.592;9.634;2023-08-30T14:05:52;2.17;;;2.07;;
1601;SDS011;794;48.592;9.634;2023-08-30T14:08:19;2.20;;;2.10;;
1601;SDS011;794;48.592;9.634;2023-08-30T14:10:48;2.57;;;2.37;;
1601;SDS011;794;48.592;9.634;2023-08-30T14:13:15;2.87;;;2.50;;
1601;SDS011;794;48.592;9.634;2023-08-30T14:15:42;2.60;;;2.23;;
1601;SDS011;794;48.592;9.634;2023-08-30T14:18:11;3.90;;;2.93;;
1601;SDS011;794;48.592;9.634;2023-08-30T14:20:41;3.10;;;2.60;;
1601;SDS011;794;48.592;9.634;2023-08-30T14:23:10;4.77;;;2.30;;
1601;SDS011;794;48.592;9.634;2023-08-30T14:25:37;2.50;;;2.30;;
1601;SDS011;794;48.592;9.634;2023-08-30T14:28:04;2.23;;;2.03;;
1601;SDS011;794;48.592;9.634;2023-08-30T14:30:34;2.50;;;2.30;;
1601;SDS011;794;48.592;9.634;2023-08-30T14:33:03;3.10;;;2.13;;
1601;SDS011;794;48.592;9.634;2023-08-30T14:35:32;2.27;;;2.17;;
1601;SDS011;794;48.592;9.634;2023-08-30T14:37:59;2.90;;;2.30;;
1601;SDS011;794;48.592;9.634;2023-08-30T14:40:33;3.67;;;2.20;;
1601;SDS011;794;48.592;9.634;2023-08-30T14:43:01;2.67;;;2.40;;
1601;SDS011;794;48.592;9.634;2023-08-30T14:45:29;2.63;;;2.43;;
1601;SDS011;794;48.592;9.634;2023-08-30T14:47:59;2.33;;;2.23;;
1601;SDS011;794;48.592;9.634;2023-08-30T14:50:28;2.60;;;2.40;;
1601;SDS011;794;48.592;9.634;2023-08-30T14:52:55;3.17;;;2.30;;
1601;SDS011;794;48.592;9.634;2023-08-30T14:55:22;2.57;;;2.20;;
1601;SDS011;794;48.592;9.634;2023-08-30T14:57:53;2.40;;;2.20;;
1601;SDS011;794;48.592;9.634;2023-08-30T15:00:21;2.70;;;2.50;;
1601;SDS011;794;48.592;9.634;2023-08-30T15:02:48;2.90;;;2.70;;
1601;SDS011;794;48.592;9.634;2023-08-30T15:05:22;2.37;;;2.17;;
1601;SDS011;794;48.592;9.634;2023-08-30T15:07:49;2.00;;;1.90;;
1601;SDS011;794;48.592;9.634;2023-08-30T15:10:19;2.60;;;2.40;;
1601;SDS011;794;48.592;9.634;2023-08-30T15:12:49;1.90;;;1.80;;
1601;SDS011;794;48.592;9.634;2023-08-30T15:15:18;2.40;;;2.20;;
1601;SDS011;794;48.592;9.634;2023-08-30T15:21:31;2.10;;;2.00;;
1601;SDS011;794;48.592;9.634;2023-08-30T15:23:58;2.70;;;2.47;;
1601;SDS011;794;48.592;9.634;2023-08-30T15:26:30;1.77;;;1.67;;
1601;SDS011;794;48.592;9.634;2023-08-30T15:28:57;1.70;;;1.60;;
1601;SDS011;794;48.592;9.634;2023-08-30T15:31:25;2.10;;;2.00;;
1601;SDS011;794;48.592;9.634;2023-08-30T15:33:52;5.97;;;2.93;;
1601;SDS011;794;48.592;9.634;2023-08-30T15:36:22;3.97;;;2.17;;
1601;SDS011;794;48.592;9.634;2023-08-30T15:38:49;3.43;;;1.70;;
1601;SDS011;794;48.592;9.634;2023-08-30T15:41:19;2.00;;;1.90;;
1601;SDS011;794;48.592;9.634;2023-08-30T15:43:46;4.43;;;2.00;;
1601;SDS011;794;48.592;9.634;2023-08-30T15:46:13;1.83;;;1.70;;
1601;SDS011;794;48.592;9.634;2023-08-30T15:48:41;2.07;;;1.97;;
1601;SDS011;794;48.592;9.634;2023-08-30T15:51:11;2.10;;;1.90;;
1601;SDS011;794;48.592;9.634;2023-08-30T15:53:38;2.57;;;2.40;;
1601;SDS011;794;48.592;9.634;2023-08-30T15:56:07;2.07;;;1.90;;
1601;SDS011;794;48.592;9.634;2023-08-30T15:58:35;3.60;;;1.90;;
1601;SDS011;794;48.592;9.634;2023-08-30T16:01:02;2.33;;;2.13;;
1601;SDS011;794;48.592;9.634;2023-08-30T16:03:31;4.53;;;2.33;;
1601;SDS011;794;48.592;9.634;2023-08-30T16:06:09;2.50;;;2.23;;
1601;SDS011;794;48.592;9.634;2023-08-30T16:08:40;2.80;;;2.20;;
1601;SDS011;794;48.592;9.634;2023-08-30T16:11:06;2.50;;;2.30;;
1601;SDS011;794;48.592;9.634;2023-08-30T16:13:33;2.47;;;2.27;;
1601;SDS011;794;48.592;9.634;2023-08-30T16:16:00;2.53;;;2.33;;